Weather at Eareckson Air Station

Public forecast

Using degrees Fahrenheit for public forecast. Weather courtesy of forecast.io.

Current aviation weather report (METAR) for Eareckson Air Station

Retrieved 2021/10/25 11:55 UTC (49 minutes ago):

PASY 251155Z 29007KT 7SM CLR 03/01 A2976 RMK AO2A SLP081 6//// T00300010 10046 20028 51010 RVRN PNO FZRANO

Aviation forecast (TAF) for Eareckson Air Station

Forecast is more than 6 hours old.

Retrieved 2021/10/25 06:12 UTC (7 hours ago):

TAF PASY 250600Z 2506/2612 28008KT 9999 FEW018 SCT025 BKN040 620406 QNH2971INS BECMG 2515/2516 32012KT 9999 BKN022 OVC035 620226 QNH2978INS BECMG 2605/2606 29020KT 9999 FEW030 SCT045 QNH3008INS TX02/2522Z TNM01/2601Z